Time;durP1;ratioP1;P1;durP2;ratioP2;P2;SDS_P1;SDS_P2;PMS_P1;PMS_P2;Temp;Humidity;BMP_temperature;BMP_pressure;BME280_temperature;BME280_humidity;BME280_pressure;Samples;Min_cycle;Max_cycle;Signal;HPM_P1;HPM_P2
2022/11/22 00:00:53;;;;;;;18.23;8.20;;;;;3.70;94460.00;;;;8431767;28;20199;-75
2022/11/22 00:04:57;;;;;;;12.00;6.93;;;;;3.60;94466.00;;;;8431945;28;20191;-76
2022/11/22 00:09:00;;;;;;;19.87;8.43;;;;;3.60;94478.00;;;;8430939;28;20196;-76
2022/11/22 00:13:04;;;;;;;16.27;8.17;;;;;3.50;94481.00;;;;8431924;28;20224;-76
2022/11/22 00:17:07;;;;;;;16.53;7.70;;;;;3.50;94477.00;;;;8430600;28;20225;-75
2022/11/22 00:21:43;;;;;;;20.60;8.23;;;;;3.40;94460.00;;;;8429865;28;20274;-75
2022/11/22 00:25:46;;;;;;;16.90;7.73;;;;;3.30;94462.00;;;;8431335;28;20242;-75
2022/11/22 00:29:49;;;;;;;16.10;7.73;;;;;3.30;94469.00;;;;8430665;28;20227;-75
2022/11/22 00:33:52;;;;;;;16.80;8.70;;;;;3.30;94466.00;;;;8430905;28;20213;-75
2022/11/22 00:38:30;;;;;;;18.00;7.63;;;;;3.20;94446.00;;;;8431191;28;20660;-75
2022/11/22 00:42:33;;;;;;;17.17;8.13;;;;;3.30;94440.00;;;;8429671;28;20187;-76
2022/11/22 00:46:37;;;;;;;15.73;7.13;;;;;3.30;94437.00;;;;8431231;28;20259;-75
2022/11/22 00:51:14;;;;;;;20.73;8.20;;;;;3.30;94440.00;;;;8430271;28;20194;-76
2022/11/22 00:55:18;;;;;;;18.50;8.70;;;;;3.30;94443.00;;;;8430104;28;20195;-76
2022/11/22 00:59:21;;;;;;;21.70;8.80;;;;;3.40;94419.00;;;;8429771;28;20226;-75
2022/11/22 01:03:25;;;;;;;19.23;8.83;;;;;3.40;94439.00;;;;8429656;28;20199;-76
2022/11/22 01:07:28;;;;;;;19.57;8.77;;;;;3.40;94436.00;;;;8430089;28;20190;-75
2022/11/22 01:11:32;;;;;;;23.20;9.40;;;;;3.50;94442.00;;;;8430310;28;20195;-76
2022/11/22 01:16:08;;;;;;;22.27;9.40;;;;;3.50;94450.00;;;;8430296;28;20207;-75
2022/11/22 01:20:11;;;;;;;25.40;9.07;;;;;3.50;94452.00;;;;8430287;28;20202;-76
2022/11/22 01:24:14;;;;;;;20.90;9.07;;;;;3.50;94443.00;;;;8430193;28;20197;-76
2022/11/22 01:28:19;;;;;;;22.00;9.43;;;;;3.50;94444.00;;;;8429905;28;20227;-76
2022/11/22 01:32:22;;;;;;;25.77;9.17;;;;;3.60;94442.00;;;;8430144;28;20625;-76
2022/11/22 01:36:58;;;;;;;18.40;9.00;;;;;3.50;94447.00;;;;8436207;28;20215;-76
2022/11/22 01:41:02;;;;;;;20.70;9.60;;;;;3.60;94450.00;;;;8435266;28;20236;-76
2022/11/22 01:45:52;;;;;;;23.77;9.77;;;;;3.50;94440.00;;;;8436724;28;20207;-75
2022/11/22 01:50:01;;;;;;;19.50;9.50;;;;;3.50;94441.00;;;;8332478;28;20200;-76
2022/11/22 01:54:09;;;;;;;22.67;10.20;;;;;3.50;94433.00;;;;8381938;28;20639;-74
2022/11/22 01:58:14;;;;;;;23.87;10.23;;;;;3.50;94438.00;;;;8435163;28;20219;-75
2022/11/22 02:02:17;;;;;;;20.63;10.30;;;;;3.50;94443.00;;;;8435048;28;20191;-74
2022/11/22 02:06:58;;;;;;;25.17;10.43;;;;;3.50;94426.00;;;;8434859;28;20195;-76
2022/11/22 02:11:03;;;;;;;23.63;10.10;;;;;3.50;94421.00;;;;8435186;28;20195;-75
2022/11/22 02:15:07;;;;;;;23.00;9.17;;;;;3.40;94419.00;;;;8434919;28;20196;-76
2022/11/22 02:19:15;;;;;;;23.93;10.33;;;;;3.40;94409.00;;;;8433797;28;20222;-76
2022/11/22 02:23:26;;;;;;;18.03;9.40;;;;;3.40;94418.00;;;;8435594;28;20243;-76
2022/11/22 02:27:31;;;;;;;22.53;9.57;;;;;3.40;94401.00;;;;8433668;28;20263;-76
2022/11/22 02:31:42;;;;;;;24.40;10.13;;;;;3.40;94402.00;;;;8434579;28;20537;-75
2022/11/22 02:35:45;;;;;;;25.00;10.80;;;;;3.40;94385.00;;;;8434296;28;20191;-76
2022/11/22 02:39:52;;;;;;;24.37;10.03;;;;;3.40;94395.00;;;;8434288;28;20306;-76
2022/11/22 02:44:25;;;;;;;23.53;10.07;;;;;3.40;94398.00;;;;8434463;28;20604;-76
2022/11/22 02:49:02;;;;;;;25.20;10.00;;;;;3.30;94407.00;;;;8434932;28;20205;-76
2022/11/22 02:53:06;;;;;;;25.50;10.50;;;;;3.30;94413.00;;;;8432875;28;20640;-75
2022/11/22 02:57:39;;;;;;;23.97;10.47;;;;;3.20;94421.00;;;;8433986;28;20552;-75
2022/11/22 03:01:46;;;;;;;22.13;9.67;;;;;3.20;94407.00;;;;8433787;28;20621;-76
2022/11/22 03:05:49;;;;;;;23.93;11.27;;;;;3.20;94411.00;;;;8432923;28;20195;-75
2022/11/22 03:10:26;;;;;;;30.90;11.50;;;;;3.20;94412.00;;;;8433483;28;20206;-75
2022/11/22 03:14:29;;;;;;;19.10;10.03;;;;;3.30;94429.00;;;;8433414;28;20199;-75
2022/11/22 03:18:34;;;;;;;25.70;10.60;;;;;3.40;94437.00;;;;8431889;28;20230;-76
2022/11/22 03:22:37;;;;;;;32.17;12.57;;;;;3.50;94437.00;;;;8433637;28;20655;-76
2022/11/22 03:26:41;;;;;;;30.40;11.70;;;;;3.60;94434.00;;;;8431827;28;20741;-76
2022/11/22 03:31:17;;;;;;;33.23;11.77;;;;;3.70;94446.00;;;;8432127;28;20187;-75
2022/11/22 03:35:22;;;;;;;27.70;11.40;;;;;3.70;94439.00;;;;8432296;28;20225;-75
2022/11/22 03:39:25;;;;;;;29.23;12.00;;;;;3.70;94454.00;;;;8431950;28;20256;-76
2022/11/22 03:43:28;;;;;;;33.40;12.30;;;;;3.70;94458.00;;;;8430801;28;20195;-75
2022/11/22 03:47:31;;;;;;;25.93;10.43;;;;;3.70;94453.00;;;;8433728;28;20229;-75
2022/11/22 03:51:36;;;;;;;27.33;11.50;;;;;3.70;94448.00;;;;8432041;28;20232;-75
2022/11/22 03:56:10;;;;;;;26.53;11.43;;;;;3.70;94436.00;;;;8432655;28;20251;-74
2022/11/22 04:00:46;;;;;;;41.13;12.57;;;;;3.70;94462.00;;;;8431528;28;20230;-75
2022/11/22 04:04:49;;;;;;;34.27;12.53;;;;;3.80;94456.00;;;;8431698;28;20513;-75
2022/11/22 04:08:54;;;;;;;37.73;12.77;;;;;3.80;94461.00;;;;8430883;28;20198;-75
2022/11/22 04:17:46;;;;;;;31.07;11.63;;;;;3.80;94459.00;;;;8430241;28;20210;-76
2022/11/22 04:21:50;;;;;;;33.97;12.83;;;;;3.90;94479.00;;;;8430859;28;20248;-75
2022/11/22 04:26:27;;;;;;;32.30;12.13;;;;;3.90;94480.00;;;;8430347;28;20220;-74
2022/11/22 04:35:06;;;;;;;31.17;11.80;;;;;4.00;94487.00;;;;8430330;28;20228;-75
2022/11/22 04:39:10;;;;;;;31.13;11.03;;;;;4.00;94479.00;;;;8430496;28;20262;-76
2022/11/22 04:56:35;;;;;;;32.73;11.53;;;;;4.00;94477.00;;;;8430695;28;20191;-77
2022/11/22 05:01:14;;;;;;;34.97;13.07;;;;;4.10;94477.00;;;;8429846;28;20251;-75
2022/11/22 05:05:17;;;;;;;29.93;11.73;;;;;4.10;94471.00;;;;8431380;28;20223;-76
2022/11/22 05:09:20;;;;;;;32.70;11.83;;;;;4.20;94461.00;;;;8433526;28;20214;-75
2022/11/22 05:13:57;;;;;;;29.13;11.57;;;;;4.10;94464.00;;;;8435290;28;20192;-73
2022/11/22 05:18:01;;;;;;;29.97;12.47;;;;;4.10;94470.00;;;;8437767;28;20295;-72
2022/11/22 05:27:11;;;;;;;33.67;12.30;;;;;4.10;94473.00;;;;8436803;28;20209;-74
2022/11/22 05:31:21;;;;;;;31.70;11.47;;;;;4.20;94484.00;;;;8437320;28;20330;-73
2022/11/22 05:35:26;;;;;;;32.53;12.37;;;;;4.10;94469.00;;;;8436538;28;20211;-71
2022/11/22 05:39:29;;;;;;;29.23;11.13;;;;;4.10;94466.00;;;;8436341;28;20295;-75
2022/11/22 05:44:06;;;;;;;27.50;11.47;;;;;4.10;94468.00;;;;8435644;28;20671;-74
2022/11/22 05:48:09;;;;;;;25.67;11.03;;;;;4.00;94475.00;;;;8437162;28;20509;-76
2022/11/22 05:52:14;;;;;;;31.07;11.00;;;;;4.00;94474.00;;;;8436536;28;20198;-74
2022/11/22 05:56:47;;;;;;;30.80;11.30;;;;;3.90;94472.00;;;;8436009;28;20250;-74
2022/11/22 06:00:51;;;;;;;24.67;11.40;;;;;3.90;94474.00;;;;8435890;28;20660;-74
2022/11/22 06:04:54;;;;;;;27.83;11.43;;;;;3.80;94482.00;;;;8437323;28;20191;-74
2022/11/22 06:08:58;;;;;;;25.30;10.23;;;;;3.70;94497.00;;;;8435783;28;20203;-73
2022/11/22 06:13:32;;;;;;;26.50;10.43;;;;;3.60;94497.00;;;;8436110;28;20743;-73
2022/11/22 06:17:35;;;;;;;29.33;10.83;;;;;3.50;94498.00;;;;8435872;28;20216;-73
2022/11/22 06:21:39;;;;;;;26.93;10.77;;;;;3.40;94499.00;;;;8435342;28;20245;-73
2022/11/22 06:25:43;;;;;;;27.33;11.13;;;;;3.40;94513.00;;;;8435315;28;20679;-73
2022/11/22 06:29:46;;;;;;;23.90;11.30;;;;;3.30;94514.00;;;;8436655;28;20278;-73
2022/11/22 06:33:50;;;;;;;25.47;10.90;;;;;3.30;94515.00;;;;8434426;28;20203;-74
2022/11/22 06:37:53;;;;;;;32.27;11.87;;;;;3.40;94523.00;;;;8435144;28;20560;-75
2022/11/22 06:42:30;;;;;;;28.20;11.70;;;;;3.50;94535.00;;;;8435681;28;20196;-74
2022/11/22 06:46:34;;;;;;;35.30;12.27;;;;;3.60;94525.00;;;;8435173;28;20532;-74
2022/11/22 06:50:37;;;;;;;28.23;10.83;;;;;3.70;94525.00;;;;8434437;28;20198;-73
2022/11/22 06:54:40;;;;;;;33.23;12.17;;;;;3.80;94534.00;;;;8435100;28;20200;-74
2022/11/22 06:58:45;;;;;;;31.77;12.80;;;;;3.90;94537.00;;;;8434612;28;20552;-75
2022/11/22 07:02:49;;;;;;;32.03;12.47;;;;;4.00;94546.00;;;;8433606;28;20199;-74
2022/11/22 07:07:23;;;;;;;34.50;12.23;;;;;4.00;94541.00;;;;8435062;28;20684;-75
2022/11/22 07:11:28;;;;;;;30.00;12.87;;;;;4.10;94555.00;;;;8433312;28;20191;-76
2022/11/22 07:15:31;;;;;;;35.50;13.20;;;;;4.20;94554.00;;;;8433918;28;20202;-75
2022/11/22 07:19:36;;;;;;;31.27;12.50;;;;;4.20;94566.00;;;;8433814;28;20649;-75
2022/11/22 07:23:39;;;;;;;35.03;13.60;;;;;4.30;94566.00;;;;8433765;28;20191;-74
2022/11/22 07:27:42;;;;;;;33.90;12.23;;;;;4.40;94583.00;;;;8432599;28;20206;-74
2022/11/22 07:31:46;;;;;;;31.90;13.33;;;;;4.40;94586.00;;;;8433779;28;20635;-74
2022/11/22 07:36:22;;;;;;;41.13;13.43;;;;;4.50;94597.00;;;;8432573;28;20191;-74
2022/11/22 07:40:27;;;;;;;31.83;12.80;;;;;4.60;94591.00;;;;8433197;28;20672;-75
2022/11/22 07:44:30;;;;;;;36.50;13.30;;;;;4.70;94589.00;;;;8432572;28;20195;-75
2022/11/22 07:48:34;;;;;;;36.60;13.03;;;;;4.80;94592.00;;;;8433111;28;20252;-75
2022/11/22 07:52:37;;;;;;;34.80;12.27;;;;;4.90;94592.00;;;;8432499;28;20254;-74
2022/11/22 07:57:13;;;;;;;29.80;12.40;;;;;4.90;94607.00;;;;8432429;28;20191;-75
2022/11/22 08:01:17;;;;;;;32.43;12.60;;;;;4.90;94616.00;;;;8431677;28;20219;-75
2022/11/22 08:05:21;;;;;;;30.40;13.03;;;;;5.00;94610.00;;;;8431997;28;20207;-76
2022/11/22 08:09:24;;;;;;;29.70;12.60;;;;;5.00;94624.00;;;;8432335;28;20243;-76
2022/11/22 08:13:28;;;;;;;32.00;13.13;;;;;5.10;94624.00;;;;8431738;28;20202;-77
2022/11/22 08:17:32;;;;;;;34.33;13.40;;;;;5.30;94632.00;;;;8431446;28;20198;-77
2022/11/22 08:21:36;;;;;;;30.80;12.53;;;;;5.50;94629.00;;;;8431502;28;20268;-77
2022/11/22 08:26:12;;;;;;;34.60;13.40;;;;;5.80;94631.00;;;;8431228;28;20269;-78
2022/11/22 08:30:17;;;;;;;31.10;12.90;;;;;6.10;94640.00;;;;8431520;28;20631;-78
2022/11/22 08:34:20;;;;;;;28.77;12.27;;;;;6.40;94650.00;;;;8432724;28;20264;-78
2022/11/22 08:38:23;;;;;;;23.73;11.83;;;;;6.50;94652.00;;;;8432187;28;20215;-78
2022/11/22 08:42:26;;;;;;;23.47;11.33;;;;;6.60;94664.00;;;;8431047;28;20533;-78
2022/11/22 08:46:31;;;;;;;29.63;13.23;;;;;6.60;94664.00;;;;8432003;28;20203;-78
2022/11/22 08:50:34;;;;;;;24.30;11.40;;;;;6.80;94666.00;;;;8431792;28;20199;-78
2022/11/22 08:54:38;;;;;;;22.17;10.83;;;;;6.80;94672.00;;;;8430601;28;20195;-78
2022/11/22 08:58:42;;;;;;;23.07;11.60;;;;;6.70;94680.00;;;;8432328;28;20556;-79
2022/11/22 09:02:46;;;;;;;25.17;13.43;;;;;6.80;94675.00;;;;8431114;28;20196;-79
2022/11/22 09:06:50;;;;;;;30.27;16.93;;;;;6.90;94684.00;;;;8432335;28;20226;-78
2022/11/22 09:11:14;;;;;;;23.87;11.73;;;;;7.10;94676.00;;;;8430434;28;20198;-79
2022/11/22 09:15:18;;;;;;;20.03;11.00;;;;;7.20;94688.00;;;;8431788;28;20256;-79
2022/11/22 09:19:22;;;;;;;18.13;10.40;;;;;7.30;94692.00;;;;8428923;28;20273;-78
2022/11/22 09:23:26;;;;;;;23.17;11.33;;;;;7.40;94684.00;;;;8431870;28;20240;-79
2022/11/22 09:28:03;;;;;;;20.23;10.83;;;;;7.50;94681.00;;;;8430449;28;20263;-79
2022/11/22 09:32:09;;;;;;;18.53;10.40;;;;;7.60;94683.00;;;;8431132;28;20203;-79
2022/11/22 09:36:15;;;;;;;15.10;9.40;;;;;7.50;94688.00;;;;8430156;28;20195;-79
2022/11/22 09:40:18;;;;;;;17.07;9.50;;;;;7.40;94697.00;;;;8430592;28;20223;-78
2022/11/22 09:44:32;;;;;;;16.43;8.93;;;;;7.30;94692.00;;;;8429596;28;20191;-78
2022/11/22 09:49:04;;;;;;;18.20;8.90;;;;;7.20;94700.00;;;;8430909;28;20233;-79
2022/11/22 09:53:15;;;;;;;18.93;9.27;;;;;7.20;94703.00;;;;8431233;28;20191;-78
2022/11/22 09:57:22;;;;;;;15.07;9.20;;;;;7.20;94701.00;;;;8435254;28;20567;-78
2022/11/22 10:01:30;;;;;;;16.30;9.07;;;;;7.30;94710.00;;;;8435609;28;20211;-79
2022/11/22 10:05:44;;;;;;;14.70;9.17;;;;;7.50;94720.00;;;;8436028;28;20211;-78
2022/11/22 10:09:53;;;;;;;22.10;10.20;;;;;7.70;94723.00;;;;8435224;28;20218;-78
2022/11/22 10:14:00;;;;;;;18.30;10.00;;;;;8.00;94716.00;;;;8436886;28;20188;-78
2022/11/22 10:18:11;;;;;;;21.73;12.10;;;;;8.30;94731.00;;;;8434843;28;20191;-78
2022/11/22 10:22:15;;;;;;;16.97;9.33;;;;;8.50;94728.00;;;;8434930;28;20269;-78
2022/11/22 10:26:24;;;;;;;15.57;9.93;;;;;8.60;94740.00;;;;8436637;28;20268;-78
2022/11/22 10:30:32;;;;;;;18.93;10.20;;;;;8.70;94733.00;;;;8434862;28;20200;-78
2022/11/22 10:34:47;;;;;;;15.03;10.03;;;;;8.80;94726.00;;;;8435231;28;20195;-78
2022/11/22 10:39:10;;;;;;;17.13;9.73;;;;;8.90;94729.00;;;;8435452;28;20510;-78
2022/11/22 10:43:24;;;;;;;17.25;9.00;;;;;9.10;94720.00;;;;8434666;28;20179;-79
2022/11/22 10:47:39;;;;;;;16.02;9.90;;;;;9.20;94730.00;;;;8434221;28;20569;-80
2022/11/22 10:51:51;;;;;;;15.37;8.97;;;;;9.40;94744.00;;;;8434433;28;20200;-80
2022/11/22 10:56:22;;;;;;;16.38;8.57;;;;;9.50;94753.00;;;;8434473;28;20282;-80
2022/11/22 11:00:31;;;;;;;16.73;7.97;;;;;9.60;94757.00;;;;8433223;28;20223;-80
2022/11/22 11:04:38;;;;;;;13.43;7.70;;;;;9.60;94753.00;;;;8433908;28;20200;-82
2022/11/22 11:09:15;;;;;;;15.02;8.05;;;;;9.50;94755.00;;;;8433662;28;20655;-80
2022/11/22 11:13:43;;;;;;;17.97;8.73;;;;;9.40;94748.00;;;;8433452;28;20199;-81
2022/11/22 11:17:53;;;;;;;13.73;8.20;;;;;9.40;94742.00;;;;8434161;28;20244;-80
2022/11/22 11:22:24;;;;;;;15.32;8.38;;;;;9.50;94742.00;;;;8434428;28;20262;-81
2022/11/22 11:26:53;;;;;;;13.00;7.97;;;;;9.60;94744.00;;;;8433564;28;20264;-80
2022/11/22 11:31:01;;;;;;;11.05;7.88;;;;;9.60;94745.00;;;;8433663;28;20257;-80
2022/11/22 11:35:07;;;;;;;11.63;7.82;;;;;9.70;94740.00;;;;8434002;28;20217;-80
2022/11/22 11:39:20;;;;;;;14.80;7.97;;;;;9.70;94736.00;;;;8432957;28;20529;-80
2022/11/22 11:43:48;;;;;;;11.73;7.05;;;;;9.80;94726.00;;;;8432871;28;20645;-80
2022/11/22 11:47:51;;;;;;;11.65;6.68;;;;;9.90;94713.00;;;;8433339;28;20199;-80
2022/11/22 11:52:30;;;;;;;13.68;7.70;;;;;10.00;94712.00;;;;8432226;28;20192;-80
2022/11/22 11:56:40;;;;;;;13.32;7.85;;;;;10.00;94715.00;;;;8432627;28;20537;-80
2022/11/22 12:00:44;;;;;;;16.38;7.63;;;;;10.00;94709.00;;;;8431935;28;20276;-80
2022/11/22 12:04:51;;;;;;;13.70;8.75;;;;;9.90;94710.00;;;;8431764;28;20660;-80
2022/11/22 12:08:56;;;;;;;13.05;8.23;;;;;9.90;94717.00;;;;8432292;28;20196;-80
2022/11/22 12:13:35;;;;;;;15.68;7.35;;;;;9.90;94709.00;;;;8432863;28;20575;-80
2022/11/22 12:18:07;;;;;;;13.07;7.72;;;;;10.00;94713.00;;;;8430463;28;20193;-80
2022/11/22 12:22:18;;;;;;;12.00;7.78;;;;;10.00;94710.00;;;;8431852;28;20219;-80
2022/11/22 12:26:43;;;;;;;10.45;7.47;;;;;10.10;94714.00;;;;8431425;28;20215;-80
2022/11/22 12:30:52;;;;;;;17.23;8.50;;;;;10.20;94701.00;;;;8430932;28;20197;-80
2022/11/22 12:35:02;;;;;;;18.10;8.18;;;;;10.30;94701.00;;;;8432183;28;20586;-80
2022/11/22 12:39:08;;;;;;;11.98;6.88;;;;;10.50;94698.00;;;;8430940;28;20254;-80
2022/11/22 12:43:21;;;;;;;11.27;7.05;;;;;10.80;94705.00;;;;8430979;28;20219;-79
2022/11/22 12:52:29;;;;;;;13.40;7.13;;;;;10.90;94697.00;;;;8431989;28;20523;-78
2022/11/22 12:56:41;;;;;;;12.45;6.10;;;;;10.90;94693.00;;;;8431629;28;20195;-78
2022/11/22 13:01:13;;;;;;;14.90;6.40;;;;;10.80;94691.00;;;;8430484;28;20260;-78
2022/11/22 13:05:20;;;;;;;15.98;7.43;;;;;10.60;94689.00;;;;8430341;28;20195;-77
2022/11/22 13:09:29;;;;;;;11.13;6.07;;;;;10.40;94696.00;;;;8431888;28;20197;-77
2022/11/22 13:13:36;;;;;;;12.32;6.25;;;;;10.40;94683.00;;;;8431643;28;20248;-77
2022/11/22 13:18:11;;;;;;;13.95;6.80;;;;;10.30;94682.00;;;;8431526;28;20703;-78
2022/11/22 13:22:20;;;;;;;13.18;5.97;;;;;10.30;94701.00;;;;8431569;28;20215;-78
2022/11/22 13:26:34;;;;;;;9.38;5.13;;;;;10.40;94692.00;;;;8431280;28;20214;-78
2022/11/22 13:30:39;;;;;;;10.40;6.30;;;;;10.40;94696.00;;;;8434233;28;20203;-78
2022/11/22 13:35:01;;;;;;;11.93;6.70;;;;;10.30;94683.00;;;;8437463;28;20594;-81
2022/11/22 13:39:21;;;;;;;12.45;6.18;;;;;10.20;94683.00;;;;8437057;28;20520;-80
2022/11/22 13:43:52;;;;;;;11.95;6.55;;;;;10.10;94693.00;;;;8435955;28;20219;-81
2022/11/22 13:47:55;;;;;;;14.02;7.10;;;;;10.10;94688.00;;;;8437017;28;20566;-80
2022/11/22 13:52:04;;;;;;;17.02;9.07;;;;;10.00;94697.00;;;;8437197;28;20195;-81
2022/11/22 13:56:45;;;;;;;13.98;6.40;;;;;9.90;94699.00;;;;8436738;28;20192;-80
2022/11/22 14:00:48;;;;;;;11.75;5.88;;;;;9.80;94698.00;;;;8437380;28;20236;-79
2022/11/22 14:04:54;;;;;;;16.98;8.82;;;;;9.80;94702.00;;;;8435455;28;20624;-77
2022/11/22 14:09:43;;;;;;;16.73;8.25;;;;;9.70;94701.00;;;;8435984;28;20582;-77
2022/11/22 14:13:55;;;;;;;16.25;7.38;;;;;9.60;94699.00;;;;8399472;28;20202;-77
2022/11/22 14:18:21;;;;;;;31.35;7.28;;;;;9.60;94713.00;;;;8435486;28;20210;-77
2022/11/22 14:22:33;;;;;;;11.80;7.10;;;;;9.60;94711.00;;;;8433228;28;20223;-77
2022/11/22 14:27:04;;;;;;;11.85;6.60;;;;;9.50;94716.00;;;;8435648;28;20270;-77
2022/11/22 14:31:20;;;;;;;12.20;7.07;;;;;9.50;94721.00;;;;8435963;28;20195;-77
2022/11/22 14:35:26;;;;;;;18.95;7.18;;;;;9.40;94719.00;;;;8434282;28;20540;-77
2022/11/22 14:40:02;;;;;;;16.45;7.03;;;;;9.30;94728.00;;;;8435543;28;20225;-77
2022/11/22 14:54:06;;;;;;;13.43;8.05;;;;;9.10;94732.00;;;;8434543;28;20502;-78
2022/11/22 14:58:14;;;;;;;19.92;8.95;;;;;9.00;94740.00;;;;8433977;28;20192;-77
2022/11/22 15:02:48;;;;;;;19.98;9.98;;;;;8.90;94742.00;;;;8434556;28;20648;-77
2022/11/22 15:07:02;;;;;;;19.57;10.07;;;;;8.80;94732.00;;;;8433217;28;20247;-77
2022/11/22 15:11:50;;;;;;;23.40;11.20;;;;;8.70;94737.00;;;;8434561;28;20639;-77
2022/11/22 15:15:55;;;;;;;21.87;10.63;;;;;8.60;94753.00;;;;8431992;28;20263;-77
2022/11/22 15:20:36;;;;;;;20.70;11.63;;;;;8.40;94749.00;;;;8434693;28;20532;-77
2022/11/22 15:25:01;;;;;;;22.43;11.40;;;;;8.30;94747.00;;;;8432886;28;20187;-77
2022/11/22 15:29:26;;;;;;;20.05;10.88;;;;;8.30;94756.00;;;;8427571;28;20194;-76
2022/11/22 15:34:02;;;;;;;24.10;11.20;;;;;8.20;94755.00;;;;8429832;28;20214;-76
2022/11/22 15:38:40;;;;;;;19.23;10.85;;;;;8.10;94770.00;;;;8430984;28;20195;-76
2022/11/22 15:43:41;;;;;;;20.93;12.13;;;;;8.00;94787.00;;;;8431703;28;20219;-77
2022/11/22 15:48:09;;;;;;;24.90;11.27;;;;;8.00;94784.00;;;;8432777;28;20201;-76
2022/11/22 15:52:32;;;;;;;22.10;11.70;;;;;7.90;94799.00;;;;8432173;28;20176;-76
2022/11/22 15:57:20;;;;;;;26.83;12.83;;;;;7.90;94806.00;;;;8432289;28;20179;-76
2022/11/22 16:01:29;;;;;;;354.10;118.73;;;;;7.80;94806.00;;;;8431447;28;20218;-75
2022/11/22 16:06:06;;;;;;;864.77;409.40;;;;;7.80;94802.00;;;;8432428;28;20198;-76
2022/11/22 16:10:20;;;;;;;583.47;254.17;;;;;7.70;94800.00;;;;8432640;28;20700;-76
2022/11/22 16:14:51;;;;;;;119.97;55.53;;;;;7.70;94801.00;;;;8432243;28;20195;-76
2022/11/22 16:19:19;;;;;;;842.27;410.37;;;;;7.60;94803.00;;;;8396200;28;20203;-76
2022/11/22 16:23:27;;;;;;;48.00;26.53;;;;;7.60;94824.00;;;;8433047;28;20552;-76
2022/11/22 16:28:06;;;;;;;53.40;30.97;;;;;7.50;94816.00;;;;8431405;28;20560;-77
2022/11/22 16:32:12;;;;;;;132.90;63.53;;;;;7.40;94811.00;;;;8431059;28;20202;-77
2022/11/22 16:36:46;;;;;;;42.70;19.33;;;;;7.40;94815.00;;;;8429453;28;20180;-77
2022/11/22 16:40:52;;;;;;;443.23;180.87;;;;;7.40;94815.00;;;;8430456;28;20656;-77
2022/11/22 16:44:56;;;;;;;800.40;349.50;;;;;7.30;94815.00;;;;8430274;28;20180;-78
2022/11/22 16:49:15;;;;;;;425.83;141.03;;;;;7.30;94822.00;;;;8432322;28;20556;-78
2022/11/22 16:53:41;;;;;;;571.20;235.57;;;;;7.30;94820.00;;;;8431210;28;20195;-77
2022/11/22 16:57:46;;;;;;;133.60;52.13;;;;;7.30;94809.00;;;;8430556;28;20194;-77
2022/11/22 17:01:50;;;;;;;58.47;26.20;;;;;7.30;94805.00;;;;8431105;28;20220;-77
2022/11/22 17:06:23;;;;;;;72.47;30.10;;;;;7.30;94806.00;;;;8434141;28;20195;-77
2022/11/22 17:11:00;;;;;;;47.10;21.40;;;;;7.30;94817.00;;;;8436674;28;20188;-77
2022/11/22 17:15:12;;;;;;;62.50;25.03;;;;;7.30;94817.00;;;;8437760;28;20207;-77
2022/11/22 17:19:39;;;;;;;63.93;24.33;;;;;7.30;94820.00;;;;8436988;28;20192;-77
2022/11/22 17:23:59;;;;;;;56.80;24.57;;;;;7.40;94826.00;;;;8437590;28;20526;-77
2022/11/22 17:28:02;;;;;;;67.07;30.07;;;;;7.30;94823.00;;;;8437356;28;20219;-77
2022/11/22 17:32:41;;;;;;;42.00;21.20;;;;;7.30;94828.00;;;;8436950;28;20202;-77
2022/11/22 17:36:47;;;;;;;41.13;20.57;;;;;7.20;94829.00;;;;8436253;28;20240;-77
2022/11/22 17:40:58;;;;;;;46.87;22.17;;;;;7.30;94833.00;;;;8436941;28;20192;-77
2022/11/22 17:45:25;;;;;;;42.37;19.20;;;;;7.20;94840.00;;;;8437324;28;20220;-77
2022/11/22 17:49:30;;;;;;;36.13;17.30;;;;;7.20;94846.00;;;;8437211;28;20207;-77
2022/11/22 17:54:05;;;;;;;46.10;18.27;;;;;7.20;94857.00;;;;8433895;28;20218;-78
2022/11/22 17:58:08;;;;;;;39.50;17.73;;;;;7.10;94855.00;;;;8436394;28;20607;-80
2022/11/22 18:02:45;;;;;;;48.90;19.60;;;;;7.10;94854.00;;;;8435963;28;20660;-82
2022/11/22 18:07:27;;;;;;;40.40;17.53;;;;;7.00;94863.00;;;;8435661;28;20272;-80
2022/11/22 18:11:30;;;;;;;44.43;17.57;;;;;7.00;94863.00;;;;8435883;28;20206;-79
2022/11/22 18:15:33;;;;;;;48.63;18.27;;;;;7.00;94856.00;;;;8433824;28;20192;-79
2022/11/22 18:19:36;;;;;;;46.03;17.63;;;;;7.00;94860.00;;;;8435810;28;20241;-79
2022/11/22 18:24:13;;;;;;;48.80;19.67;;;;;6.90;94865.00;;;;8435247;28;20553;-80
2022/11/22 18:28:54;;;;;;;41.83;18.70;;;;;6.90;94867.00;;;;8434814;28;20219;-81
2022/11/22 18:33:32;;;;;;;53.90;20.07;;;;;6.90;94870.00;;;;8434213;28;20196;-80
2022/11/22 18:38:07;;;;;;;48.03;19.03;;;;;6.90;94873.00;;;;8435964;28;20578;-80
2022/11/22 18:42:41;;;;;;;50.40;19.93;;;;;6.90;94885.00;;;;8434101;28;20222;-79
2022/11/22 18:47:19;;;;;;;49.73;19.67;;;;;6.90;94874.00;;;;8435029;28;20203;-76
2022/11/22 18:51:23;;;;;;;45.90;19.80;;;;;6.90;94884.00;;;;8435201;28;20238;-76
2022/11/22 18:56:02;;;;;;;57.47;21.03;;;;;6.90;94879.00;;;;8434029;28;20544;-76
2022/11/22 19:00:36;;;;;;;50.40;20.93;;;;;6.80;94893.00;;;;8435061;28;20658;-75
2022/11/22 19:05:15;;;;;;;48.43;17.70;;;;;6.70;94883.00;;;;8434781;28;20276;-76
2022/11/22 19:09:49;;;;;;;49.27;17.67;;;;;6.70;94892.00;;;;8434552;28;20298;-75
2022/11/22 19:14:23;;;;;;;42.83;17.67;;;;;6.70;94896.00;;;;8433988;28;20223;-75
2022/11/22 19:19:00;;;;;;;57.40;18.30;;;;;6.60;94893.00;;;;8433448;28;20191;-76
2022/11/22 19:23:37;;;;;;;60.90;19.67;;;;;6.60;94890.00;;;;8434538;28;20737;-77
2022/11/22 19:28:16;;;;;;;112.43;48.63;;;;;6.60;94887.00;;;;8433718;28;20215;-77
2022/11/22 19:32:50;;;;;;;98.33;40.40;;;;;6.60;94893.00;;;;8432968;28;20252;-76
2022/11/22 19:37:26;;;;;;;86.17;27.67;;;;;6.60;94891.00;;;;8432836;28;20553;-77
2022/11/22 19:42:02;;;;;;;143.83;32.70;;;;;6.60;94892.00;;;;8433369;28;20195;-76
2022/11/22 19:46:41;;;;;;;84.23;24.87;;;;;6.60;94894.00;;;;8432770;28;20252;-75
2022/11/22 19:50:45;;;;;;;73.50;27.37;;;;;6.60;94896.00;;;;8433569;28;20217;-76
2022/11/22 19:54:49;;;;;;;71.27;23.73;;;;;6.60;94908.00;;;;8430099;28;20195;-76
2022/11/22 19:59:26;;;;;;;80.70;21.13;;;;;6.60;94898.00;;;;8430992;28;20200;-75
2022/11/22 20:04:05;;;;;;;92.13;24.43;;;;;6.50;94907.00;;;;8432462;28;20255;-76
2022/11/22 20:08:09;;;;;;;124.27;34.37;;;;;6.50;94923.00;;;;8431380;28;20195;-76
2022/11/22 20:12:43;;;;;;;98.93;18.97;;;;;6.50;94919.00;;;;8432571;28;20545;-76
2022/11/22 20:16:46;;;;;;;152.50;23.00;;;;;6.40;94921.00;;;;8431581;28;20534;-76
2022/11/22 20:21:25;;;;;;;138.30;18.10;;;;;6.40;94926.00;;;;8432053;28;20191;-76
2022/11/22 20:26:00;;;;;;;201.17;18.67;;;;;6.30;94925.00;;;;8426333;28;20227;-76
2022/11/22 20:30:34;;;;;;;234.27;21.67;;;;;6.30;94918.00;;;;8429590;28;20247;-76
2022/11/22 20:35:11;;;;;;;194.93;21.17;;;;;6.30;94916.00;;;;8431034;28;20195;-76
2022/11/22 20:39:49;;;;;;;173.60;18.70;;;;;6.20;94924.00;;;;8429962;28;20227;-75
2022/11/22 20:43:53;;;;;;;137.97;19.63;;;;;6.20;94932.00;;;;8431355;28;20219;-76
2022/11/22 20:48:30;;;;;;;117.90;18.13;;;;;6.20;94929.00;;;;8430502;28;20184;-77
2022/11/22 20:53:04;;;;;;;191.50;20.10;;;;;6.20;94928.00;;;;8432001;28;20207;-76
2022/11/22 20:57:43;;;;;;;87.40;15.43;;;;;6.20;94931.00;;;;8431292;28;20229;-76
2022/11/22 21:02:17;;;;;;;141.33;18.83;;;;;6.10;94925.00;;;;8431801;28;20553;-76
2022/11/22 21:06:56;;;;;;;78.60;15.77;;;;;6.10;94928.00;;;;8430122;28;20191;-77
2022/11/22 21:11:30;;;;;;;170.23;18.13;;;;;6.00;94930.00;;;;8430651;28;20204;-76
2022/11/22 21:15:35;;;;;;;135.90;16.97;;;;;5.90;94934.00;;;;8431020;28;20537;-76
2022/11/22 21:20:09;;;;;;;150.87;18.00;;;;;5.90;94938.00;;;;8430877;28;20529;-76
2022/11/22 21:24:43;;;;;;;120.93;17.63;;;;;5.90;94950.00;;;;8431060;28;20230;-76
2022/11/22 21:29:20;;;;;;;339.07;23.87;;;;;5.90;94949.00;;;;8431033;28;20215;-76
2022/11/22 21:33:25;;;;;;;157.07;18.70;;;;;6.00;94949.00;;;;8430572;28;20541;-76
2022/11/22 21:37:59;;;;;;;118.37;17.63;;;;;6.00;94947.00;;;;8428795;28;20244;-76
2022/11/22 21:42:36;;;;;;;93.00;16.83;;;;;6.00;94949.00;;;;8431208;28;20708;-75
2022/11/22 21:46:39;;;;;;;95.27;15.63;;;;;6.00;94949.00;;;;8427163;28;20225;-76
2022/11/22 21:50:44;;;;;;;136.13;17.70;;;;;6.00;94957.00;;;;8432609;28;20211;-76